createdAt,value
2023-03-15T00:00:53.972Z,5.15
2023-03-15T00:03:22.257Z,5.97
2023-03-15T00:05:50.375Z,5.38
2023-03-15T00:08:17.701Z,6.25
2023-03-15T00:10:46.919Z,5.15
2023-03-15T00:13:15.560Z,3.92
2023-03-15T00:15:48.013Z,4.15
2023-03-15T00:18:16.329Z,5.50
2023-03-15T00:20:44.312Z,3.35
2023-03-15T00:23:12.177Z,3.60
2023-03-15T00:25:39.872Z,2.60
2023-03-15T00:28:07.905Z,1.00
2023-03-15T00:30:35.488Z,1.48
2023-03-15T00:33:06.163Z,1.30
2023-03-15T00:35:34.274Z,1.40
2023-03-15T00:38:02.082Z,1.10
2023-03-15T00:40:29.422Z,1.00
2023-03-15T00:42:57.858Z,4.03
2023-03-15T00:45:25.153Z,5.32
2023-03-15T00:47:53.761Z,5.15
2023-03-15T00:50:22.294Z,6.57
2023-03-15T00:52:49.646Z,6.30
2023-03-15T00:55:19.311Z,5.57
2023-03-15T00:57:47.354Z,5.82
2023-03-15T01:00:17.949Z,3.80
2023-03-15T01:02:45.494Z,4.88
2023-03-15T01:05:13.799Z,4.68
2023-03-15T01:07:41.140Z,2.75
2023-03-15T01:10:09.315Z,1.17
2023-03-15T01:12:37.117Z,1.38
2023-03-15T01:15:07.003Z,0.85
2023-03-15T01:17:34.535Z,1.50
2023-03-15T01:20:01.934Z,1.10
2023-03-15T01:22:29.289Z,1.65
2023-03-15T01:24:56.437Z,4.63
2023-03-15T01:27:23.715Z,5.53
2023-03-15T01:29:51.125Z,5.88
2023-03-15T01:32:18.319Z,5.35
2023-03-15T01:34:45.883Z,4.53
2023-03-15T01:37:14.806Z,4.80
2023-03-15T01:39:42.855Z,3.05
2023-03-15T01:42:11.000Z,1.77
2023-03-15T01:44:57.555Z,1.60
2023-03-15T01:47:26.293Z,5.95
2023-03-15T01:50:12.049Z,5.07
2023-03-15T01:52:42.256Z,1.63
2023-03-15T01:55:17.596Z,1.45
2023-03-15T01:57:56.340Z,4.47
2023-03-15T02:00:23.744Z,5.75
2023-03-15T02:03:01.875Z,5.70
2023-03-15T02:05:33.801Z,2.45
2023-03-15T02:08:02.229Z,1.20
2023-03-15T02:10:54.682Z,2.25
2023-03-15T02:13:24.156Z,5.78
2023-03-15T02:15:53.768Z,5.50
2023-03-15T02:18:21.776Z,5.85
2023-03-15T02:21:13.896Z,5.80
2023-03-15T02:23:41.481Z,2.88
2023-03-15T02:26:35.794Z,1.30
2023-03-15T02:29:03.076Z,1.10
2023-03-15T02:31:38.495Z,1.88
2023-03-15T02:34:07.995Z,1.05
2023-03-15T02:36:37.368Z,2.47
2023-03-15T02:39:19.051Z,0.95
2023-03-15T02:41:50.162Z,4.05
2023-03-15T02:44:31.154Z,5.63
2023-03-15T02:47:04.342Z,3.60
2023-03-15T02:49:35.761Z,1.17
2023-03-15T02:52:03.036Z,1.05
2023-03-15T02:54:30.336Z,1.58
2023-03-15T02:56:57.512Z,4.82
2023-03-15T02:59:24.798Z,5.22
2023-03-15T03:01:52.198Z,5.45
2023-03-15T03:04:19.726Z,5.90
2023-03-15T03:06:46.993Z,7.05
2023-03-15T03:09:14.273Z,4.75
2023-03-15T03:11:41.672Z,2.97
2023-03-15T03:14:09.136Z,1.10
2023-03-15T03:16:36.874Z,1.10
2023-03-15T03:19:04.444Z,0.98
2023-03-15T03:21:31.753Z,1.35
2023-03-15T03:23:59.036Z,3.05
2023-03-15T03:26:28.456Z,5.45
2023-03-15T03:28:56.482Z,5.00
2023-03-15T03:31:25.878Z,5.43
2023-03-15T03:33:53.212Z,5.03
2023-03-15T03:36:20.976Z,8.02
2023-03-15T03:38:48.634Z,5.72
2023-03-15T03:41:15.997Z,3.65
2023-03-15T03:43:43.827Z,2.00
2023-03-15T03:46:11.239Z,2.25
2023-03-15T03:48:38.791Z,1.20
2023-03-15T03:51:06.717Z,1.25
2023-03-15T03:53:34.067Z,1.13
2023-03-15T03:56:04.387Z,1.00
2023-03-15T03:58:31.654Z,1.30
2023-03-15T04:00:59.200Z,3.55
2023-03-15T04:03:29.600Z,4.85
2023-03-15T04:05:58.536Z,5.30
2023-03-15T04:08:26.858Z,5.22
2023-03-15T04:10:55.542Z,5.50
2023-03-15T04:13:24.331Z,4.80
2023-03-15T04:15:52.358Z,5.55
2023-03-15T04:18:19.659Z,5.47
2023-03-15T04:20:48.212Z,5.70
2023-03-15T04:23:16.403Z,3.40
2023-03-15T04:25:43.844Z,2.38
2023-03-15T04:28:11.222Z,1.60
2023-03-15T04:30:40.246Z,1.20
2023-03-15T04:33:07.886Z,1.05
2023-03-15T04:35:36.574Z,0.80
2023-03-15T04:38:04.387Z,1.10
2023-03-15T04:40:35.325Z,1.10
2023-03-15T04:43:04.962Z,1.25
2023-03-15T04:45:32.883Z,0.85
2023-03-15T04:48:01.680Z,3.22
2023-03-15T04:50:29.911Z,3.67
2023-03-15T04:52:59.220Z,5.20
2023-03-15T04:55:26.590Z,5.00
2023-03-15T04:57:54.367Z,5.43
2023-03-15T05:00:22.060Z,6.10
2023-03-15T05:02:55.226Z,5.75
2023-03-15T05:05:24.175Z,10.55
2023-03-15T05:07:51.576Z,6.38
2023-03-15T05:10:19.901Z,5.00
2023-03-15T05:12:47.230Z,4.63
2023-03-15T05:15:14.683Z,4.75
2023-03-15T05:17:42.029Z,2.63
2023-03-15T05:20:12.246Z,1.20
2023-03-15T05:22:41.072Z,1.20
2023-03-15T05:25:10.335Z,1.17
2023-03-15T05:27:38.740Z,1.67
2023-03-15T05:30:07.820Z,1.15
2023-03-15T05:32:35.559Z,1.15
2023-03-15T05:35:03.364Z,1.20
2023-03-15T05:37:32.842Z,2.10
2023-03-15T05:40:01.697Z,2.55
2023-03-15T05:42:29.767Z,3.85
2023-03-15T05:44:57.838Z,5.57
2023-03-15T05:47:25.179Z,5.13
2023-03-15T05:49:53.675Z,5.95
2023-03-15T05:52:21.039Z,6.07
2023-03-15T05:54:48.534Z,5.45
2023-03-15T05:57:15.844Z,6.72
2023-03-15T05:59:43.251Z,2.40
2023-03-15T06:02:10.736Z,1.30
2023-03-15T06:04:38.496Z,1.00
2023-03-15T06:07:05.946Z,1.25
2023-03-15T06:09:33.426Z,1.15
2023-03-15T06:12:00.730Z,2.78
2023-03-15T06:14:28.049Z,9.23
2023-03-15T06:16:55.467Z,5.72
2023-03-15T06:19:23.657Z,6.05
2023-03-15T06:21:51.594Z,5.78
2023-03-15T06:24:18.937Z,6.57
2023-03-15T06:26:46.150Z,4.88
2023-03-15T06:29:13.386Z,2.67
2023-03-15T06:31:40.883Z,1.60
2023-03-15T06:34:08.250Z,5.35
2023-03-15T06:36:37.299Z,1.10
2023-03-15T06:39:05.960Z,1.08
2023-03-15T06:41:33.276Z,1.60
2023-03-15T06:44:00.707Z,3.70
2023-03-15T06:46:28.112Z,5.43
2023-03-15T06:48:55.559Z,5.78
2023-03-15T06:51:23.299Z,7.47
2023-03-15T06:53:50.723Z,6.13
2023-03-15T06:56:18.130Z,3.17
2023-03-15T06:58:45.468Z,2.17
2023-03-15T07:01:14.409Z,1.20
2023-03-15T07:03:42.536Z,1.27
2023-03-15T07:06:10.501Z,1.08
2023-03-15T07:08:37.957Z,0.95
2023-03-15T07:11:06.667Z,1.10
2023-03-15T07:13:34.039Z,1.27
2023-03-15T07:16:01.824Z,3.17
2023-03-15T07:18:29.051Z,5.40
2023-03-15T07:21:00.551Z,5.10
2023-03-15T07:23:27.925Z,5.25
2023-03-15T07:25:56.346Z,5.88
2023-03-15T07:28:25.015Z,5.88
2023-03-15T07:30:56.610Z,5.93
2023-03-15T07:33:25.149Z,5.75
2023-03-15T07:35:56.022Z,5.53
2023-03-15T07:38:25.072Z,5.97
2023-03-15T07:40:52.615Z,5.72
2023-03-15T07:43:20.386Z,4.88
2023-03-15T07:45:47.670Z,4.38
2023-03-15T07:48:15.071Z,2.70
2023-03-15T07:50:42.796Z,1.30
2023-03-15T07:53:10.156Z,1.17
2023-03-15T07:55:37.599Z,1.30
2023-03-15T07:58:06.143Z,1.25
2023-03-15T08:00:33.810Z,1.95
2023-03-15T08:03:01.261Z,4.10
2023-03-15T08:05:29.315Z,4.53
2023-03-15T08:07:56.954Z,4.93
2023-03-15T08:10:24.457Z,6.15
2023-03-15T08:12:51.917Z,5.88
2023-03-15T08:15:19.802Z,3.72
2023-03-15T08:17:50.224Z,2.13
2023-03-15T08:20:20.566Z,3.20
2023-03-15T08:22:49.005Z,3.80
2023-03-15T08:25:19.625Z,2.55
2023-03-15T08:27:47.100Z,2.05
2023-03-15T08:30:15.888Z,1.00
2023-03-15T08:32:45.854Z,0.90
2023-03-15T08:35:16.130Z,1.00
2023-03-15T08:37:48.201Z,0.95
2023-03-15T08:40:24.307Z,2.28
2023-03-15T08:42:53.042Z,4.72
2023-03-15T08:45:20.901Z,2.75
2023-03-15T08:47:55.079Z,2.75
2023-03-15T08:50:22.567Z,4.43
2023-03-15T08:52:49.988Z,3.38
2023-03-15T08:55:17.964Z,2.25
2023-03-15T08:57:45.718Z,1.10
2023-03-15T09:00:34.229Z,1.23
2023-03-15T09:03:01.875Z,5.47
2023-03-15T09:05:29.503Z,4.50
2023-03-15T09:07:56.861Z,5.05
2023-03-15T09:10:24.473Z,4.80
2023-03-15T09:12:54.141Z,2.95
2023-03-15T09:15:22.241Z,2.97
2023-03-15T09:17:52.307Z,2.90
2023-03-15T09:20:22.316Z,2.42
2023-03-15T09:22:54.688Z,2.22
2023-03-15T09:25:22.744Z,3.53
2023-03-15T09:27:50.168Z,2.25
2023-03-15T09:30:18.053Z,1.48
2023-03-15T09:32:46.482Z,1.23
2023-03-15T09:35:17.555Z,1.10
2023-03-15T09:37:45.373Z,3.10
2023-03-15T09:40:27.944Z,1.40
2023-03-15T09:43:00.799Z,5.82
2023-03-15T09:45:36.280Z,5.65
2023-03-15T09:48:10.380Z,4.80
2023-03-15T09:50:44.938Z,2.50
2023-03-15T09:53:49.300Z,1.42
2023-03-15T09:56:25.018Z,1.13
2023-03-15T09:58:57.286Z,2.17
2023-03-15T10:01:38.589Z,3.97
2023-03-15T10:04:10.104Z,5.32
2023-03-15T10:06:38.219Z,3.63
2023-03-15T10:09:13.189Z,5.35
2023-03-15T10:12:18.470Z,2.10
2023-03-15T10:15:09.336Z,1.10
2023-03-15T10:18:12.169Z,4.80
2023-03-15T10:20:45.420Z,2.90
2023-03-15T10:23:24.238Z,1.40
2023-03-15T10:25:52.659Z,1.00
2023-03-15T10:28:26.289Z,1.23
2023-03-15T10:30:54.133Z,2.20
2023-03-15T10:33:28.897Z,1.30
2023-03-15T10:36:07.808Z,2.90
2023-03-15T10:38:39.537Z,4.80
2023-03-15T10:41:08.690Z,5.03
2023-03-15T10:43:37.859Z,4.72
2023-03-15T10:46:13.119Z,5.30
2023-03-15T10:48:59.002Z,4.10
2023-03-15T10:51:30.148Z,2.13
2023-03-15T10:54:08.723Z,3.63
2023-03-15T10:56:42.748Z,4.70
2023-03-15T10:59:22.028Z,5.47
2023-03-15T11:01:51.996Z,1.17
2023-03-15T11:04:27.620Z,1.20
2023-03-15T11:06:57.806Z,1.10
2023-03-15T11:09:27.009Z,1.30
2023-03-15T11:12:01.956Z,1.23
2023-03-15T11:14:45.713Z,4.07
2023-03-15T11:17:19.791Z,4.40
2023-03-15T11:20:16.467Z,1.08
2023-03-15T11:22:43.999Z,3.50
2023-03-15T11:25:18.359Z,6.07
2023-03-15T11:27:51.331Z,2.72
2023-03-15T11:30:19.253Z,1.30
2023-03-15T11:32:47.608Z,3.28
2023-03-15T11:35:18.808Z,4.80
2023-03-15T11:38:14.579Z,3.33
2023-03-15T11:40:54.164Z,5.15
2023-03-15T11:43:53.139Z,1.45
2023-03-15T11:46:35.579Z,1.30
2023-03-15T11:49:15.296Z,3.78
2023-03-15T11:51:42.861Z,5.55
2023-03-15T11:54:15.271Z,7.78
2023-03-15T11:56:58.882Z,5.57
2023-03-15T11:59:38.280Z,1.30
2023-03-15T12:02:15.094Z,4.25
2023-03-15T12:04:51.270Z,5.72
2023-03-15T12:07:24.242Z,5.13
2023-03-15T12:09:52.833Z,1.95
2023-03-15T12:12:26.192Z,4.13
2023-03-15T12:15:06.470Z,1.17
2023-03-15T12:17:39.135Z,2.83
2023-03-15T12:20:12.337Z,5.03
2023-03-15T12:22:54.688Z,4.95
2023-03-15T12:25:58.600Z,2.33
2023-03-15T12:28:38.975Z,1.20
2023-03-15T12:31:09.156Z,2.28
2023-03-15T12:33:48.744Z,2.35
2023-03-15T12:36:28.097Z,5.85
2023-03-15T12:39:18.343Z,1.35
2023-03-15T12:41:50.997Z,5.70
2023-03-15T12:44:22.238Z,5.05
2023-03-15T12:46:50.005Z,5.03
2023-03-15T12:49:23.213Z,6.10
2023-03-15T12:52:07.245Z,4.82
2023-03-15T12:54:40.452Z,1.00
2023-03-15T12:57:11.768Z,2.67
2023-03-15T12:59:43.889Z,2.17
2023-03-15T13:02:29.509Z,4.70
2023-03-15T13:05:26.268Z,1.13
2023-03-15T13:08:10.197Z,4.80
2023-03-15T13:10:52.036Z,1.10
2023-03-15T13:13:33.168Z,7.35
2023-03-15T13:16:37.605Z,1.00
2023-03-15T13:19:17.017Z,1.05
2023-03-15T13:21:50.844Z,4.65
2023-03-15T13:24:24.374Z,6.03
2023-03-15T13:27:02.557Z,5.03
2023-03-15T13:29:31.797Z,3.08
2023-03-15T13:32:19.893Z,3.20
2023-03-15T13:34:48.131Z,3.25
2023-03-15T13:37:22.433Z,3.97
2023-03-15T13:39:56.096Z,5.75
2023-03-15T13:42:25.022Z,6.15
2023-03-15T13:45:12.719Z,4.90
2023-03-15T13:47:45.047Z,1.17
2023-03-15T13:50:21.035Z,1.00
2023-03-15T13:52:49.072Z,4.40
2023-03-15T13:55:22.760Z,3.15
2023-03-15T13:58:00.523Z,3.15
2023-03-15T14:00:28.332Z,4.93
2023-03-15T14:02:59.664Z,6.65
2023-03-15T14:05:33.018Z,5.25
2023-03-15T14:08:08.567Z,4.70
2023-03-15T14:10:37.897Z,1.70
2023-03-15T14:13:23.280Z,2.28
2023-03-15T14:15:51.347Z,3.28
2023-03-15T14:18:24.455Z,2.50
2023-03-15T14:21:05.383Z,4.20
2023-03-15T14:23:33.162Z,4.10
2023-03-15T14:26:11.788Z,4.53
2023-03-15T14:28:39.784Z,0.98
2023-03-15T14:31:07.777Z,2.45
2023-03-15T14:33:38.431Z,4.10
2023-03-15T14:36:10.040Z,4.30
2023-03-15T14:38:39.648Z,2.95
2023-03-15T14:41:31.783Z,3.75
2023-03-15T14:44:04.803Z,5.25
2023-03-15T14:46:32.503Z,4.50
2023-03-15T14:49:00.058Z,5.18
2023-03-15T14:51:31.281Z,4.38
2023-03-15T14:53:59.994Z,5.22
2023-03-15T14:56:27.693Z,2.85
2023-03-15T14:58:55.084Z,2.03
2023-03-15T15:01:26.099Z,0.77
2023-03-15T15:04:03.957Z,1.63
2023-03-15T15:06:32.660Z,4.70
2023-03-15T15:09:01.766Z,4.38
2023-03-15T15:11:29.169Z,3.03
2023-03-15T15:13:57.111Z,1.70
2023-03-15T15:16:25.098Z,2.07
2023-03-15T15:18:53.292Z,1.10
2023-03-15T15:21:25.947Z,0.80
2023-03-15T15:24:00.715Z,1.07
2023-03-15T15:26:29.872Z,1.97
2023-03-15T15:28:57.904Z,1.90
2023-03-15T15:31:27.190Z,1.70
2023-03-15T15:33:56.785Z,0.85
2023-03-15T15:36:42.251Z,0.90
2023-03-15T15:39:23.206Z,4.10
2023-03-15T15:41:50.854Z,1.15
2023-03-15T15:44:24.372Z,1.63
2023-03-15T15:46:52.154Z,1.00
2023-03-15T15:49:22.649Z,1.57
2023-03-15T15:51:50.513Z,1.30
2023-03-15T15:54:27.545Z,3.23
2023-03-15T15:56:57.713Z,1.00
2023-03-15T15:59:26.050Z,1.03
2023-03-15T16:02:02.579Z,0.90
2023-03-15T16:04:30.910Z,1.27
2023-03-15T16:07:04.461Z,1.00
2023-03-15T16:09:35.552Z,1.17
2023-03-15T16:12:03.355Z,0.90
2023-03-15T16:14:31.302Z,1.17
2023-03-15T16:16:58.922Z,0.90
2023-03-15T16:19:26.397Z,0.77
2023-03-15T16:21:55.001Z,1.73
2023-03-15T16:24:31.722Z,3.50
2023-03-15T16:27:03.782Z,1.00
2023-03-15T16:29:37.822Z,1.17
2023-03-15T16:32:16.779Z,0.80
2023-03-15T16:34:52.678Z,5.03
2023-03-15T16:37:32.546Z,4.07
2023-03-15T16:40:01.433Z,1.20
2023-03-15T16:42:29.050Z,1.23
2023-03-15T16:44:56.482Z,2.90
2023-03-15T16:47:24.020Z,4.07
2023-03-15T16:49:51.410Z,4.10
2023-03-15T16:52:19.206Z,5.90
2023-03-15T16:54:48.453Z,4.63
2023-03-15T16:57:23.596Z,3.30
2023-03-15T16:59:51.834Z,5.30
2023-03-15T17:02:22.472Z,4.20
2023-03-15T17:04:51.779Z,3.80
2023-03-15T17:07:25.371Z,4.37
2023-03-15T17:09:53.271Z,12.40
2023-03-15T17:12:25.096Z,4.20
2023-03-15T17:14:53.128Z,8.90
2023-03-15T17:17:20.564Z,4.93
2023-03-15T17:19:48.865Z,3.57
2023-03-15T17:22:17.993Z,1.63
2023-03-15T17:24:46.087Z,1.73
2023-03-15T17:27:23.533Z,0.83
2023-03-15T17:29:51.202Z,3.43
2023-03-15T17:32:18.813Z,2.87
2023-03-15T17:34:47.781Z,1.40
2023-03-15T17:37:16.496Z,0.90
2023-03-15T17:39:48.920Z,0.97
2023-03-15T17:42:16.718Z,1.10
2023-03-15T17:44:44.844Z,1.07
2023-03-15T17:47:13.272Z,0.97
2023-03-15T17:49:40.828Z,1.20
2023-03-15T17:52:18.574Z,2.30
2023-03-15T17:54:47.126Z,1.03
2023-03-15T17:57:14.862Z,0.90
2023-03-15T17:59:42.465Z,1.17
2023-03-15T18:02:15.878Z,1.95
2023-03-15T18:04:43.347Z,1.40
2023-03-15T18:07:11.029Z,1.63
2023-03-15T18:09:38.754Z,3.92
2023-03-15T18:12:06.566Z,4.30
2023-03-15T18:14:37.513Z,3.65
2023-03-15T18:17:05.865Z,4.38
2023-03-15T18:19:33.350Z,5.50
2023-03-15T18:22:00.874Z,5.13
2023-03-15T18:24:28.328Z,3.17
2023-03-15T18:26:55.662Z,1.87
2023-03-15T18:29:23.554Z,0.93
2023-03-15T18:31:51.133Z,0.95
2023-03-15T18:34:22.350Z,0.98
2023-03-15T18:36:50.312Z,0.95
2023-03-15T18:39:17.650Z,0.80
2023-03-15T18:41:45.275Z,2.75
2023-03-15T18:44:12.585Z,6.95
2023-03-15T18:46:40.691Z,4.10
2023-03-15T18:49:08.138Z,5.10
2023-03-15T18:51:37.349Z,5.28
2023-03-15T18:54:06.151Z,3.78
2023-03-15T18:56:35.031Z,3.17
2023-03-15T18:59:02.936Z,2.65
2023-03-15T19:01:30.424Z,2.03
2023-03-15T19:03:58.069Z,0.90
2023-03-15T19:06:26.766Z,0.70
2023-03-15T19:08:54.736Z,1.75
2023-03-15T19:11:24.225Z,1.05
2023-03-15T19:13:51.940Z,1.17
2023-03-15T19:16:22.046Z,2.97
2023-03-15T19:18:49.974Z,3.40
2023-03-15T19:21:19.209Z,4.15
2023-03-15T19:23:47.314Z,4.40
2023-03-15T19:26:15.417Z,4.22
2023-03-15T19:28:43.082Z,5.43
2023-03-15T19:31:11.028Z,4.53
2023-03-15T19:33:38.818Z,3.95
2023-03-15T19:36:06.855Z,2.00
2023-03-15T19:38:34.768Z,1.38
2023-03-15T19:41:06.867Z,1.33
2023-03-15T19:43:35.150Z,1.08
2023-03-15T19:46:05.120Z,0.80
2023-03-15T19:48:32.680Z,0.88
2023-03-15T19:51:00.213Z,0.90
2023-03-15T19:53:27.907Z,2.28
2023-03-15T19:55:55.641Z,4.50
2023-03-15T19:58:23.061Z,4.68
2023-03-15T20:00:52.331Z,5.22
2023-03-15T20:03:19.852Z,5.57
2023-03-15T20:05:47.432Z,4.95
2023-03-15T20:08:15.271Z,3.60
2023-03-15T20:10:44.514Z,3.72
2023-03-15T20:13:12.259Z,2.00
2023-03-15T20:15:40.195Z,2.00
2023-03-15T20:18:08.613Z,0.98
2023-03-15T20:20:36.028Z,0.90
2023-03-15T20:23:04.005Z,1.00
2023-03-15T20:25:31.911Z,2.42
2023-03-15T20:27:59.338Z,4.95
2023-03-15T20:30:27.022Z,4.60
2023-03-15T20:32:55.195Z,6.05
2023-03-15T20:35:23.521Z,4.57
2023-03-15T20:37:59.611Z,3.05
2023-03-15T20:40:30.650Z,4.40
2023-03-15T20:43:20.083Z,4.10
2023-03-15T20:46:02.961Z,2.33
2023-03-15T20:48:35.766Z,3.85
2023-03-15T20:51:07.366Z,4.20
2023-03-15T20:53:44.130Z,3.58
2023-03-15T20:56:18.147Z,1.55
2023-03-15T20:58:49.071Z,2.35
2023-03-15T21:01:18.436Z,2.05
2023-03-15T21:03:53.693Z,2.05
2023-03-15T21:06:21.656Z,2.13
2023-03-15T21:08:50.331Z,2.03
2023-03-15T21:11:18.808Z,1.02
2023-03-15T21:13:48.324Z,2.38
2023-03-15T21:16:15.829Z,2.08
2023-03-15T21:18:45.432Z,1.33
2023-03-15T21:21:16.927Z,1.50
2023-03-15T21:23:44.425Z,3.45
2023-03-15T21:26:13.756Z,3.05
2023-03-15T21:28:41.814Z,4.68
2023-03-15T21:31:10.205Z,4.80
2023-03-15T21:33:37.798Z,4.95
2023-03-15T21:36:05.963Z,7.68
2023-03-15T21:38:35.346Z,5.22
2023-03-15T21:41:07.451Z,5.35
2023-03-15T21:43:35.050Z,4.82
2023-03-15T21:46:08.119Z,3.25
2023-03-15T21:48:37.235Z,4.10
2023-03-15T21:51:05.129Z,6.20
2023-03-15T21:53:36.022Z,4.10
2023-03-15T21:56:04.331Z,4.13
2023-03-15T21:58:31.999Z,2.50
2023-03-15T22:01:01.556Z,1.35
2023-03-15T22:03:29.788Z,0.93
2023-03-15T22:05:57.687Z,1.85
2023-03-15T22:08:25.459Z,1.15
2023-03-15T22:10:54.493Z,1.30
2023-03-15T22:13:30.987Z,1.90
2023-03-15T22:15:58.945Z,1.63
2023-03-15T22:18:29.309Z,1.00
2023-03-15T22:20:58.107Z,1.85
2023-03-15T22:23:25.802Z,1.00
2023-03-15T22:25:54.011Z,3.65
2023-03-15T22:28:22.567Z,5.10
2023-03-15T22:30:51.137Z,4.82
2023-03-15T22:33:20.519Z,5.65
2023-03-15T22:35:54.892Z,5.45
2023-03-15T22:38:23.162Z,5.03
2023-03-15T22:40:50.867Z,5.90
2023-03-15T22:43:18.450Z,1.10
2023-03-15T22:45:46.282Z,1.88
2023-03-15T22:48:13.753Z,1.35
2023-03-15T22:50:41.145Z,1.40
2023-03-15T22:53:08.759Z,2.53
2023-03-15T22:55:36.290Z,5.70
2023-03-15T22:58:03.726Z,5.57
2023-03-15T23:00:31.181Z,10.68
2023-03-15T23:02:58.401Z,8.98
2023-03-15T23:05:25.685Z,3.35
2023-03-15T23:07:53.261Z,4.28
2023-03-15T23:10:21.306Z,2.38
2023-03-15T23:12:49.189Z,1.35
2023-03-15T23:15:16.951Z,2.30
2023-03-15T23:17:47.192Z,1.30
2023-03-15T23:20:19.075Z,2.35
2023-03-15T23:22:47.349Z,1.20
2023-03-15T23:25:16.732Z,1.23
2023-03-15T23:27:44.131Z,4.45
2023-03-15T23:30:13.385Z,1.40
2023-03-15T23:32:42.925Z,1.00
2023-03-15T23:35:15.188Z,1.67
2023-03-15T23:37:43.403Z,2.83
2023-03-15T23:40:16.222Z,1.00
2023-03-15T23:42:44.609Z,1.20
2023-03-15T23:45:12.948Z,1.10
2023-03-15T23:47:40.640Z,1.23
2023-03-15T23:50:09.495Z,3.45
2023-03-15T23:52:39.550Z,4.55
2023-03-15T23:58:16.035Z,1.08
